Terminal Aerodrome Forecast
Issued by NWS

Home | Current Version | Previous Version | Text Only | Print | Product List | Glossary On
Versions: 1 2 3 4 5 6 7 8 9 10 11 12 13 14 15 16 17
208
FTUS45 KABQ 220211 AAA
TAFFMN
TAF AMD
KFMN 220211Z 2202/2224 03011KT P6SM BKN090
      TEMPO 2202/2204 03015G25KT
     FM220500 08006KT P6SM BKN100=

USA.gov is the U.S. government's official web portal to all federal, state and local government web resources and services.